createdAt,value
2022-10-24T00:00:21.272Z,99876.50
2022-10-24T00:05:23.096Z,99860.72
2022-10-24T00:10:24.783Z,99864.81
2022-10-24T00:15:26.314Z,99868.63
2022-10-24T00:20:27.903Z,99875.91
2022-10-24T00:25:29.423Z,99880.38
2022-10-24T00:30:31.069Z,99892.72
2022-10-24T00:35:32.660Z,99886.50
2022-10-24T00:40:34.215Z,99884.38
2022-10-24T00:45:44.683Z,99888.25
2022-10-24T00:50:47.022Z,99871.78
2022-10-24T00:55:50.795Z,99870.44
2022-10-24T01:00:52.323Z,99875.63
2022-10-24T01:05:57.691Z,99882.03
2022-10-24T01:11:18.313Z,99872.19
2022-10-24T01:16:32.296Z,99865.06
2022-10-24T01:21:46.047Z,99865.50
2022-10-24T01:27:06.075Z,99875.63
2022-10-24T01:32:21.920Z,99872.94
2022-10-24T01:38:02.247Z,99880.00
2022-10-24T01:43:09.690Z,99856.69
2022-10-24T01:48:14.653Z,99840.78
2022-10-24T01:53:16.852Z,99842.09
2022-10-24T01:58:18.987Z,99840.72
2022-10-24T02:03:46.244Z,99842.75
2022-10-24T02:08:52.017Z,99835.47
2022-10-24T02:13:58.164Z,99836.34
2022-10-24T02:19:00.481Z,99836.53
2022-10-24T02:24:14.484Z,99837.75
2022-10-24T02:29:19.774Z,99820.84
2022-10-24T02:34:22.406Z,99809.78
2022-10-24T02:39:25.315Z,99799.56
2022-10-24T02:44:27.656Z,99795.75
2022-10-24T02:49:29.181Z,99806.41
2022-10-24T02:54:30.764Z,99809.13
2022-10-24T02:59:32.268Z,99804.28
2022-10-24T03:04:33.762Z,99807.66
2022-10-24T03:09:35.283Z,99808.94
2022-10-24T03:14:36.844Z,99817.09
2022-10-24T03:19:38.549Z,99830.03
2022-10-24T03:24:44.306Z,99836.72
2022-10-24T03:29:56.222Z,99833.63
2022-10-24T03:34:57.704Z,99828.81
2022-10-24T03:39:59.251Z,99824.09
2022-10-24T03:45:00.748Z,99840.72
2022-10-24T03:50:02.243Z,99832.91
2022-10-24T03:55:03.914Z,99836.06
2022-10-24T04:00:06.327Z,99843.22
2022-10-24T04:05:08.407Z,99833.47
2022-10-24T04:10:10.176Z,99843.19
2022-10-24T04:15:11.674Z,99831.84
2022-10-24T04:20:13.438Z,99838.09
2022-10-24T04:25:15.432Z,99833.81
2022-10-24T04:30:18.511Z,99843.56
2022-10-24T04:35:20.078Z,99853.22
2022-10-24T04:40:21.719Z,99849.66
2022-10-24T04:45:23.209Z,99845.31
2022-10-24T04:50:24.809Z,99843.56
2022-10-24T04:55:26.433Z,99844.25
2022-10-24T05:00:28.029Z,99840.88
2022-10-24T05:05:29.519Z,99836.44
2022-10-24T05:10:31.084Z,99837.91
2022-10-24T05:15:32.730Z,99840.16
2022-10-24T05:20:34.285Z,99845.03
2022-10-24T05:25:35.908Z,99856.34
2022-10-24T05:30:37.396Z,99853.97
2022-10-24T05:35:38.968Z,99851.50
2022-10-24T05:40:40.654Z,99841.44
2022-10-24T05:45:42.402Z,99839.03
2022-10-24T05:50:44.007Z,99856.22
2022-10-24T05:55:45.568Z,99856.41
2022-10-24T06:00:51.223Z,99859.88
2022-10-24T06:05:55.178Z,99859.63
2022-10-24T06:10:56.669Z,99856.31
2022-10-24T06:15:58.165Z,99855.19
2022-10-24T06:21:00.444Z,99868.94
2022-10-24T06:26:01.987Z,99867.25
2022-10-24T06:31:03.772Z,99856.59
2022-10-24T06:36:07.788Z,99866.22
2022-10-24T06:41:11.307Z,99870.31
2022-10-24T06:46:14.794Z,99874.13
2022-10-24T06:51:16.417Z,99868.66
2022-10-24T06:56:18.258Z,99881.66
2022-10-24T07:01:22.000Z,99891.69
2022-10-24T07:06:26.494Z,99892.59
2022-10-24T07:11:28.698Z,99889.81
2022-10-24T07:16:30.247Z,99887.66
2022-10-24T07:21:32.918Z,99893.38
2022-10-24T07:26:34.428Z,99891.19
2022-10-24T07:31:36.551Z,99883.09
2022-10-24T07:36:41.436Z,99876.97
2022-10-24T07:41:45.273Z,99890.09
2022-10-24T07:46:46.750Z,99893.59
2022-10-24T07:51:48.257Z,99893.66
2022-10-24T07:56:49.782Z,99890.91
2022-10-24T08:01:51.283Z,99879.97
2022-10-24T08:06:52.800Z,99877.34
2022-10-24T08:11:54.298Z,99882.72
2022-10-24T08:16:55.782Z,99882.34
2022-10-24T08:21:57.396Z,99879.03
2022-10-24T08:26:59.533Z,99868.91
2022-10-24T08:32:01.132Z,99884.31
2022-10-24T08:37:03.387Z,99889.50
2022-10-24T08:42:06.977Z,99882.50
2022-10-24T08:47:27.485Z,99887.13
2022-10-24T08:52:42.609Z,99884.50
2022-10-24T08:57:54.914Z,99877.66
2022-10-24T09:03:04.411Z,99883.56
2022-10-24T09:08:27.037Z,99877.56
2022-10-24T09:13:29.810Z,99877.03
2022-10-24T09:18:34.599Z,99868.25
2022-10-24T09:23:37.698Z,99860.84
2022-10-24T09:28:39.437Z,99862.09
2022-10-24T09:33:42.651Z,99874.38
2022-10-24T09:38:45.074Z,99863.78
2022-10-24T09:43:51.053Z,99858.78
2022-10-24T09:48:54.761Z,99855.91
2022-10-24T09:54:19.066Z,99869.22
2022-10-24T09:59:37.746Z,99862.47
2022-10-24T10:04:40.275Z,99875.59
2022-10-24T10:09:56.699Z,99855.69
2022-10-24T10:14:59.691Z,99851.16
2022-10-24T10:20:01.225Z,99851.59
2022-10-24T10:25:02.886Z,99852.44
2022-10-24T10:30:14.950Z,99831.44
2022-10-24T10:35:24.335Z,99829.97
2022-10-24T10:40:31.411Z,99837.09
2022-10-24T10:45:35.705Z,99836.06
2022-10-24T10:50:43.071Z,99823.56
2022-10-24T10:55:51.228Z,99836.06
2022-10-24T11:01:01.615Z,99822.94
2022-10-24T11:06:21.429Z,99815.03
2022-10-24T11:11:31.629Z,99792.56
2022-10-24T11:16:33.524Z,99792.56
2022-10-24T11:21:35.306Z,99804.63
2022-10-24T11:27:01.741Z,99811.31
2022-10-24T11:32:29.325Z,99810.94
2022-10-24T11:37:37.084Z,99812.41
2022-10-24T11:43:15.876Z,99804.25
2022-10-24T11:48:32.823Z,99795.50
2022-10-24T11:53:39.287Z,99793.84
2022-10-24T11:59:08.035Z,99806.34
2022-10-24T12:04:57.852Z,99815.91
2022-10-24T12:10:17.020Z,99800.53
2022-10-24T12:15:32.895Z,99781.00
2022-10-24T12:20:35.273Z,99806.78
2022-10-24T12:25:37.735Z,99831.75
2022-10-24T12:30:39.639Z,99839.22
2022-10-24T12:35:41.131Z,99826.34
2022-10-24T12:40:45.718Z,99811.78
2022-10-24T12:45:47.255Z,99815.97
2022-10-24T12:50:57.593Z,99809.28
2022-10-24T12:55:58.976Z,99802.84
2022-10-24T13:01:04.067Z,99796.81
2022-10-24T13:06:12.259Z,99789.31
2022-10-24T13:11:27.923Z,99783.47
2022-10-24T13:16:40.430Z,99791.41
2022-10-24T13:21:54.909Z,99790.09
2022-10-24T13:26:56.715Z,99790.31
2022-10-24T13:32:04.230Z,99788.25
2022-10-24T13:37:24.973Z,99802.41
2022-10-24T13:42:29.478Z,99810.13
2022-10-24T13:47:34.725Z,99817.81
2022-10-24T13:52:49.048Z,99822.59
2022-10-24T13:58:01.352Z,99839.03
2022-10-24T14:03:13.688Z,99829.03
2022-10-24T14:08:30.633Z,99834.44
2022-10-24T14:13:35.814Z,99823.63
2022-10-24T14:18:39.351Z,99824.88
2022-10-24T14:23:41.295Z,99832.16
2022-10-24T14:28:50.571Z,99833.19
2022-10-24T14:33:55.013Z,99822.38
2022-10-24T14:38:58.795Z,99814.66
2022-10-24T14:44:00.802Z,99837.13
2022-10-24T14:49:28.340Z,99837.38
2022-10-24T14:54:33.598Z,99843.16
2022-10-24T14:59:39.009Z,99844.44
2022-10-24T15:04:45.717Z,99850.03
2022-10-24T15:10:01.843Z,99849.22
2022-10-24T15:15:52.139Z,99851.50
2022-10-24T15:21:12.325Z,99860.00
2022-10-24T15:26:36.351Z,99861.91
2022-10-24T15:31:40.762Z,99872.28
2022-10-24T15:36:43.917Z,99878.31
2022-10-24T15:41:45.433Z,99882.47
2022-10-24T15:46:47.883Z,99884.53
2022-10-24T15:51:50.659Z,99886.41
2022-10-24T15:56:52.947Z,99893.25
2022-10-24T16:01:56.533Z,99897.81
2022-10-24T16:06:58.150Z,99896.34
2022-10-24T16:11:59.698Z,99894.88
2022-10-24T16:17:01.234Z,99881.97
2022-10-24T16:22:02.856Z,99894.66
2022-10-24T16:27:04.462Z,99890.25
2022-10-24T16:32:06.114Z,99886.50
2022-10-24T16:37:07.711Z,99882.34
2022-10-24T16:42:09.174Z,99874.44
2022-10-24T16:47:10.725Z,99889.16
2022-10-24T16:52:12.614Z,99889.59
2022-10-24T16:57:14.180Z,99895.75
2022-10-24T17:02:17.050Z,99891.16
2022-10-24T17:07:18.599Z,99884.06
2022-10-24T17:12:20.134Z,99881.28
2022-10-24T17:17:21.641Z,99886.63
2022-10-24T17:22:23.310Z,99892.03
2022-10-24T17:27:25.319Z,99895.56
2022-10-24T17:32:26.932Z,99891.38
2022-10-24T17:37:43.150Z,99891.16
2022-10-24T17:42:48.480Z,99885.97
2022-10-24T17:47:50.304Z,99898.66
2022-10-24T17:52:52.155Z,99885.97
2022-10-24T17:57:53.992Z,99881.13
2022-10-24T18:02:55.503Z,99893.47
2022-10-24T18:07:57.882Z,99899.69
2022-10-24T18:18:06.172Z,99915.56
2022-10-24T18:23:07.700Z,99912.03
2022-10-24T18:28:09.653Z,99909.91
2022-10-24T18:33:11.209Z,99901.97
2022-10-24T18:38:12.772Z,99908.47
2022-10-24T18:43:14.454Z,99922.66
2022-10-24T18:48:16.624Z,99922.56
2022-10-24T18:53:25.930Z,99927.03
2022-10-24T18:58:27.491Z,99930.19
2022-10-24T19:03:34.104Z,99922.16
2022-10-24T19:08:35.713Z,99918.75
2022-10-24T19:13:37.230Z,99916.84
2022-10-24T19:18:38.772Z,99911.94
2022-10-24T19:23:40.241Z,99921.06
2022-10-24T19:28:41.742Z,99920.94
2022-10-24T19:33:43.291Z,99915.91
2022-10-24T19:38:44.785Z,99920.03
2022-10-24T19:43:46.259Z,99924.16
2022-10-24T19:48:53.040Z,99919.91
2022-10-24T19:53:54.630Z,99930.81
2022-10-24T19:58:56.261Z,99926.34
2022-10-24T20:03:57.821Z,99920.19
2022-10-24T20:08:59.414Z,99930.53
2022-10-24T20:14:01.291Z,99930.16
2022-10-24T20:19:03.831Z,99924.97
2022-10-24T20:24:06.113Z,99929.63
2022-10-24T20:29:07.675Z,99933.44
2022-10-24T20:34:11.997Z,99930.38
2022-10-24T20:39:16.020Z,99938.63
2022-10-24T20:44:17.548Z,99933.72
2022-10-24T20:49:19.025Z,99940.00
2022-10-24T20:54:20.537Z,99947.13
2022-10-24T20:59:22.863Z,99943.38
2022-10-24T21:04:24.339Z,99946.19
2022-10-24T21:09:25.847Z,99948.38
2022-10-24T21:14:27.494Z,99954.34
2022-10-24T21:19:30.389Z,99960.22
2022-10-24T21:24:32.007Z,99953.41
2022-10-24T21:29:34.338Z,99946.81
2022-10-24T21:34:36.057Z,99952.47
2022-10-24T21:39:37.555Z,99951.94
2022-10-24T21:44:39.044Z,99959.66
2022-10-24T21:49:40.535Z,99953.94
2022-10-24T21:54:42.056Z,99949.56
2022-10-24T21:59:43.565Z,99957.75
2022-10-24T22:04:45.170Z,99964.88
2022-10-24T22:09:46.715Z,99961.72
2022-10-24T22:14:48.204Z,99959.78
2022-10-24T22:19:49.692Z,99967.41
2022-10-24T22:24:51.258Z,99962.75
2022-10-24T22:29:52.763Z,99957.38
2022-10-24T22:34:54.473Z,99962.94
2022-10-24T22:39:56.185Z,99974.94
2022-10-24T22:44:57.924Z,99980.41
2022-10-24T22:50:37.724Z,99978.09
2022-10-24T22:55:53.500Z,99973.72
2022-10-24T23:00:59.954Z,99969.72
2022-10-24T23:06:33.672Z,99981.63
2022-10-24T23:11:35.405Z,99979.19
2022-10-24T23:16:45.108Z,99988.31
2022-10-24T23:22:09.275Z,99995.28
2022-10-24T23:27:11.392Z,100015.81
2022-10-24T23:32:34.163Z,100021.47
2022-10-24T23:37:38.682Z,100025.31
2022-10-24T23:42:40.749Z,100031.28
2022-10-24T23:47:48.443Z,100020.38
2022-10-24T23:53:31.315Z,100025.38
2022-10-24T23:58:32.825Z,100027.06
